createdAt,value
2023-02-05T00:01:54.822Z,102916.28
2023-02-05T00:06:56.918Z,102913.66
2023-02-05T00:11:59.868Z,102904.03
2023-02-05T00:17:02.102Z,102911.03
2023-02-05T00:22:04.330Z,102896.06
2023-02-05T00:27:08.112Z,102900.47
2023-02-05T00:32:10.408Z,102908.38
2023-02-05T00:37:12.556Z,102927.72
2023-02-05T00:42:14.662Z,102919.84
2023-02-05T00:47:16.825Z,102915.47
2023-02-05T00:52:19.099Z,102918.13
2023-02-05T00:57:24.889Z,102916.38
2023-02-05T01:02:27.527Z,102922.50
2023-02-05T01:07:29.680Z,102922.44
2023-02-05T01:12:33.458Z,102922.44
2023-02-05T01:17:35.952Z,102925.13
2023-02-05T01:22:38.399Z,102937.47
2023-02-05T01:27:41.902Z,102933.97
2023-02-05T01:32:44.139Z,102922.50
2023-02-05T01:37:46.340Z,102921.59
2023-02-05T01:42:48.749Z,102918.03
2023-02-05T01:48:02.166Z,102924.25
2023-02-05T01:53:10.379Z,102925.97
2023-02-05T01:58:13.692Z,102913.69
2023-02-05T02:03:16.175Z,102911.13
2023-02-05T02:08:18.294Z,102921.66
2023-02-05T02:13:22.435Z,102918.06
2023-02-05T02:18:26.726Z,102924.13
2023-02-05T02:23:53.208Z,102912.66
2023-02-05T02:29:00.601Z,102908.28
2023-02-05T02:34:51.926Z,102905.72
2023-02-05T02:40:07.503Z,102896.06
2023-02-05T02:45:13.178Z,102899.63
2023-02-05T02:50:42.747Z,102904.03
2023-02-05T02:55:46.666Z,102903.94
2023-02-05T03:00:49.786Z,102907.50
2023-02-05T03:05:55.032Z,102917.16
2023-02-05T03:11:03.113Z,102932.06
2023-02-05T03:16:06.814Z,102896.41
2023-02-05T03:21:37.583Z,102917.28
2023-02-05T03:26:40.467Z,102912.78
2023-02-05T03:31:57.983Z,102910.88
2023-02-05T03:37:17.516Z,102916.22
2023-02-05T03:42:29.178Z,102918.06
2023-02-05T03:47:46.716Z,102916.31
2023-02-05T03:52:57.951Z,102918.09
2023-02-05T03:58:10.619Z,102934.84
2023-02-05T04:03:13.435Z,102948.88
2023-02-05T04:08:16.806Z,102940.84
2023-02-05T04:13:23.646Z,102937.41
2023-02-05T04:18:26.481Z,102945.38
2023-02-05T04:23:29.401Z,102951.53
2023-02-05T04:28:32.167Z,102939.25
2023-02-05T04:33:36.873Z,102963.94
2023-02-05T04:38:39.445Z,102962.97
2023-02-05T04:43:41.773Z,102981.41
2023-02-05T04:48:43.932Z,102985.81
2023-02-05T04:53:46.039Z,102986.72
2023-02-05T04:58:48.162Z,102992.00
2023-02-05T05:03:51.411Z,102992.06
2023-02-05T05:08:54.229Z,102994.72
2023-02-05T05:13:56.473Z,102988.47
2023-02-05T05:18:58.636Z,103001.59
2023-02-05T05:24:00.840Z,103017.44
2023-02-05T05:29:03.746Z,103007.81
2023-02-05T05:34:05.910Z,103002.56
2023-02-05T05:39:26.436Z,103017.59
2023-02-05T05:44:28.764Z,103026.47
2023-02-05T05:49:30.931Z,103029.91
2023-02-05T05:54:33.634Z,103028.97
2023-02-05T05:59:35.952Z,103032.44
2023-02-05T06:04:38.198Z,103040.41
2023-02-05T06:09:40.512Z,103059.81
2023-02-05T06:14:42.714Z,103060.72
2023-02-05T06:19:44.834Z,103072.19
2023-02-05T06:24:47.184Z,103080.94
2023-02-05T06:29:49.603Z,103056.44
2023-02-05T06:34:51.832Z,103079.06
2023-02-05T06:39:53.948Z,103090.59
2023-02-05T06:44:56.207Z,103075.69
2023-02-05T06:49:58.408Z,103081.88
2023-02-05T06:55:00.708Z,103088.06
2023-02-05T07:00:04.232Z,103089.81
2023-02-05T07:05:07.200Z,103082.72
2023-02-05T07:10:09.649Z,103097.66
2023-02-05T07:15:11.861Z,103109.16
2023-02-05T07:20:14.060Z,103114.44
2023-02-05T07:25:16.458Z,103114.47
2023-02-05T07:30:18.838Z,103116.22
2023-02-05T07:35:21.195Z,103115.31
2023-02-05T07:40:23.404Z,103125.84
2023-02-05T07:45:25.768Z,103139.00
2023-02-05T07:50:28.169Z,103127.63
2023-02-05T07:55:30.696Z,103142.63
2023-02-05T08:00:32.943Z,103137.31
2023-02-05T08:05:36.843Z,103127.69
2023-02-05T08:10:38.970Z,103129.41
2023-02-05T08:15:41.355Z,103144.28
2023-02-05T08:20:44.267Z,103140.72
2023-02-05T08:25:46.632Z,103146.94
2023-02-05T08:30:50.451Z,103148.75
2023-02-05T08:35:53.057Z,103147.94
2023-02-05T08:40:55.210Z,103144.38
2023-02-05T08:45:57.434Z,103151.41
2023-02-05T08:50:59.691Z,103146.97
2023-02-05T08:56:03.525Z,103153.88
2023-02-05T09:01:09.778Z,103162.72
2023-02-05T09:06:14.906Z,103164.56
2023-02-05T09:11:22.096Z,103173.38
2023-02-05T09:16:24.788Z,103170.75
2023-02-05T09:21:27.082Z,103178.66
2023-02-05T09:26:29.254Z,103183.03
2023-02-05T09:31:31.723Z,103197.88
2023-02-05T09:36:34.346Z,103201.44
2023-02-05T09:42:00.040Z,103208.59
2023-02-05T09:47:02.202Z,103197.13
2023-02-05T09:52:28.404Z,103201.53
2023-02-05T09:57:35.588Z,103193.59
2023-02-05T10:02:50.253Z,103193.53
2023-02-05T10:07:58.367Z,103197.88
2023-02-05T10:13:29.571Z,103203.28
2023-02-05T10:18:34.784Z,103217.38
2023-02-05T10:23:43.782Z,103213.00
2023-02-05T10:29:04.016Z,103208.59
2023-02-05T10:34:33.090Z,103217.38
2023-02-05T10:39:35.328Z,103213.78
2023-02-05T10:44:43.150Z,103214.63
2023-02-05T10:49:52.215Z,103205.84
2023-02-05T10:54:54.898Z,103218.28
2023-02-05T11:00:02.402Z,103212.09
2023-02-05T11:05:26.755Z,103213.03
2023-02-05T11:10:31.440Z,103204.06
2023-02-05T11:15:33.993Z,103183.09
2023-02-05T11:20:40.041Z,103196.88
2023-02-05T11:25:58.581Z,103189.03
2023-02-05T11:31:35.073Z,103188.22
2023-02-05T11:36:49.187Z,103186.50
2023-02-05T11:41:53.338Z,103175.06
2023-02-05T11:46:57.691Z,103177.78
2023-02-05T11:52:02.110Z,103161.00
2023-02-05T11:57:35.713Z,103177.66
2023-02-05T12:02:42.944Z,103167.09
2023-02-05T12:07:56.831Z,103163.59
2023-02-05T12:13:23.681Z,103157.44
2023-02-05T12:19:01.296Z,103153.09
2023-02-05T12:24:34.090Z,103136.31
2023-02-05T12:30:08.512Z,103137.97
2023-02-05T12:35:33.599Z,103123.03
2023-02-05T12:41:01.685Z,103120.53
2023-02-05T12:46:31.626Z,103112.59
2023-02-05T12:51:36.859Z,103095.81
2023-02-05T12:56:54.106Z,103085.25
2023-02-05T13:02:01.955Z,103084.25
2023-02-05T13:07:12.064Z,103074.63
2023-02-05T13:12:16.660Z,103073.88
2023-02-05T13:17:25.246Z,103079.06
2023-02-05T13:22:50.253Z,103081.78
2023-02-05T13:28:17.429Z,103060.03
2023-02-05T13:33:19.621Z,103059.72
2023-02-05T13:38:33.658Z,103058.81
2023-02-05T13:43:44.373Z,103055.25
2023-02-05T13:49:03.610Z,103050.97
2023-02-05T13:54:39.523Z,103056.25
2023-02-05T13:59:46.764Z,103058.91
2023-02-05T14:04:54.340Z,103056.19
2023-02-05T14:10:02.830Z,103044.72
2023-02-05T14:15:17.045Z,103043.81
2023-02-05T14:20:25.470Z,103026.16
2023-02-05T14:25:38.318Z,103035.03
2023-02-05T14:31:03.750Z,103032.44
2023-02-05T14:36:18.532Z,103017.50
2023-02-05T14:41:25.160Z,103022.72
2023-02-05T14:46:43.221Z,103027.09
2023-02-05T14:51:52.833Z,103025.28
2023-02-05T14:57:11.983Z,103022.66
2023-02-05T15:02:51.601Z,103014.75
2023-02-05T15:08:14.637Z,103002.53
2023-02-05T15:13:19.351Z,103007.72
2023-02-05T15:18:27.771Z,102991.03
2023-02-05T15:23:35.624Z,102993.59
2023-02-05T15:28:56.282Z,102985.63
2023-02-05T15:34:13.195Z,102984.81
2023-02-05T15:39:31.450Z,102991.88
2023-02-05T15:44:36.302Z,102991.00
2023-02-05T15:49:43.617Z,102983.91
2023-02-05T15:54:45.823Z,102999.78
2023-02-05T15:59:48.602Z,103002.38
2023-02-05T16:05:18.398Z,102997.91
2023-02-05T16:10:24.657Z,103002.34
2023-02-05T16:15:35.440Z,102988.28
2023-02-05T16:20:42.232Z,102981.25
2023-02-05T16:25:50.915Z,102985.69
2023-02-05T16:30:57.135Z,102984.78
2023-02-05T16:36:02.683Z,102978.50
2023-02-05T16:41:32.314Z,102995.22
2023-02-05T16:46:36.578Z,102998.78
2023-02-05T16:51:47.579Z,103004.13
2023-02-05T16:57:07.167Z,102997.06
2023-02-05T17:02:40.977Z,102989.16
2023-02-05T17:07:43.406Z,102993.50
2023-02-05T17:12:54.780Z,102994.31
2023-02-05T17:18:04.762Z,102985.50
2023-02-05T17:23:09.080Z,102992.59
2023-02-05T17:28:16.231Z,102988.22
2023-02-05T17:33:24.529Z,102985.63
2023-02-05T17:38:26.773Z,102982.91
2023-02-05T17:43:28.886Z,102993.50
2023-02-05T17:48:31.039Z,102993.38
2023-02-05T17:53:33.172Z,102989.75
2023-02-05T17:58:35.357Z,103001.28
2023-02-05T18:03:38.273Z,102991.69
2023-02-05T18:08:40.987Z,102991.72
2023-02-05T18:13:43.306Z,102978.84
2023-02-05T18:18:45.525Z,102989.06
2023-02-05T18:23:53.070Z,102998.66
2023-02-05T18:28:55.301Z,102995.94
2023-02-05T18:33:57.423Z,102988.97
2023-02-05T18:38:59.613Z,102997.81
2023-02-05T18:44:01.856Z,102978.47
2023-02-05T18:49:04.581Z,102979.38
2023-02-05T18:54:09.700Z,102969.69
2023-02-05T18:59:15.602Z,102962.53
2023-02-05T19:04:18.896Z,102953.63
2023-02-05T19:09:23.264Z,102963.44
2023-02-05T19:14:26.281Z,102952.00
2023-02-05T19:19:29.168Z,102955.56
2023-02-05T19:24:31.502Z,102943.25
2023-02-05T19:29:38.393Z,102933.56
2023-02-05T19:34:43.414Z,102942.25
2023-02-05T19:39:46.297Z,102934.28
2023-02-05T19:44:48.564Z,102935.16
2023-02-05T19:49:50.786Z,102916.81
2023-02-05T19:54:52.975Z,102924.72
2023-02-05T19:59:55.236Z,102911.59
2023-02-05T20:04:57.571Z,102915.91
2023-02-05T20:09:59.703Z,102914.00
2023-02-05T20:15:02.034Z,102915.63
2023-02-05T20:20:12.760Z,102909.50
2023-02-05T20:25:21.108Z,102906.09
2023-02-05T20:30:41.836Z,102913.19
2023-02-05T20:35:44.045Z,102913.25
2023-02-05T20:40:46.086Z,102902.69
2023-02-05T20:45:48.273Z,102891.13
2023-02-05T20:50:50.644Z,102898.16
2023-02-05T20:55:52.727Z,102913.00
2023-02-05T21:00:54.843Z,102906.03
2023-02-05T21:05:57.924Z,102904.34
2023-02-05T21:11:00.089Z,102904.44
2023-02-05T21:16:03.052Z,102913.19
2023-02-05T21:21:10.262Z,102919.34
2023-02-05T21:26:30.781Z,102917.47
2023-02-05T21:31:39.446Z,102906.00
2023-02-05T21:36:42.210Z,102899.06
2023-02-05T21:41:47.727Z,102894.06
2023-02-05T21:46:49.894Z,102911.47
2023-02-05T21:51:53.593Z,102899.06
2023-02-05T21:56:56.123Z,102900.75
2023-02-05T22:01:58.424Z,102897.22
2023-02-05T22:07:00.667Z,102891.06
2023-02-05T22:12:04.144Z,102894.59
2023-02-05T22:17:06.307Z,102879.00
2023-02-05T22:22:08.677Z,102885.06
2023-02-05T22:27:10.751Z,102896.44
2023-02-05T22:32:12.792Z,102901.66
2023-02-05T22:37:14.848Z,102891.06
2023-02-05T22:42:18.952Z,102908.66
2023-02-05T22:47:21.229Z,102913.97
2023-02-05T22:52:23.285Z,102876.34
2023-02-05T22:57:25.393Z,102901.63
2023-02-05T23:02:27.458Z,102909.56
2023-02-05T23:07:29.522Z,102902.50
2023-02-05T23:12:31.688Z,102904.34
2023-02-05T23:17:36.149Z,102895.56
2023-02-05T23:22:38.377Z,102890.22
2023-02-05T23:27:41.654Z,102885.00
2023-02-05T23:32:43.784Z,102881.47
2023-02-05T23:37:45.826Z,102880.56
2023-02-05T23:42:47.893Z,102866.47
2023-02-05T23:47:49.968Z,102859.56
2023-02-05T23:52:52.057Z,102834.88
2023-02-05T23:57:54.108Z,102833.88
